sensor_id;sensor_type;location;lat;lon;timestamp;pressure;altitude;pressure_sealevel;temperature;humidity
74936;BME280;63501;55.570;37.488;2024-01-06T00:00:13;98383.16;;;22.48;20.38
74936;BME280;63501;55.570;37.488;2024-01-06T00:02:41;98378.03;;;22.46;20.55
74936;BME280;63501;55.570;37.488;2024-01-06T00:05:08;98383.16;;;22.48;20.38
74936;BME280;63501;55.570;37.488;2024-01-06T00:07:36;98377.50;;;22.48;20.24
74936;BME280;63501;55.570;37.488;2024-01-06T00:10:03;98381.09;;;22.48;20.41
74936;BME280;63501;55.570;37.488;2024-01-06T00:12:30;98377.50;;;22.48;20.26
74936;BME280;63501;55.570;37.488;2024-01-06T00:14:57;98363.94;;;22.46;20.88
74936;BME280;63501;55.570;37.488;2024-01-06T00:17:24;98370.34;;;22.47;20.27
74936;BME280;63501;55.570;37.488;2024-01-06T00:19:51;98380.31;;;22.48;20.24
74936;BME280;63501;55.570;37.488;2024-01-06T00:22:17;98370.34;;;22.47;20.24
74936;BME280;63501;55.570;37.488;2024-01-06T00:24:46;98380.31;;;22.48;20.44
74936;BME280;63501;55.570;37.488;2024-01-06T00:27:13;98363.94;;;22.46;20.44
74936;BME280;63501;55.570;37.488;2024-01-06T00:29:41;98369.06;;;22.48;19.77
74936;BME280;63501;55.570;37.488;2024-01-06T00:32:08;98366.25;;;22.48;20.12
74936;BME280;63501;55.570;37.488;2024-01-06T00:34:35;98363.16;;;22.46;20.08
74936;BME280;63501;55.570;37.488;2024-01-06T00:37:02;98359.06;;;22.47;19.79
74936;BME280;63501;55.570;37.488;2024-01-06T00:39:29;98357.53;;;22.46;20.05
74936;BME280;63501;55.570;37.488;2024-01-06T00:41:57;98363.16;;;22.46;19.66
74936;BME280;63501;55.570;37.488;2024-01-06T00:44:24;98371.63;;;22.46;19.87
74936;BME280;63501;55.570;37.488;2024-01-06T00:46:50;98380.06;;;22.46;19.86
74936;BME280;63501;55.570;37.488;2024-01-06T00:49:17;98367.22;;;22.44;19.80
74936;BME280;63501;55.570;37.488;2024-01-06T00:51:44;98370.84;;;22.45;19.55
74936;BME280;63501;55.570;37.488;2024-01-06T00:54:11;98379.78;;;22.43;19.62
74936;BME280;63501;55.570;37.488;2024-01-06T00:56:38;98383.34;;;22.44;19.75
74936;BME280;63501;55.570;37.488;2024-01-06T00:59:08;98389.00;;;22.44;20.09
74936;BME280;63501;55.570;37.488;2024-01-06T01:01:35;98391.03;;;22.43;19.94
74936;BME280;63501;55.570;37.488;2024-01-06T01:04:02;98396.66;;;22.43;19.63
74936;BME280;63501;55.570;37.488;2024-01-06T01:06:30;98395.41;;;22.44;19.71
74936;BME280;63501;55.570;37.488;2024-01-06T01:08:57;98393.09;;;22.43;20.21
74936;BME280;63501;55.570;37.488;2024-01-06T01:11:24;98398.72;;;22.43;19.94
74936;BME280;63501;55.570;37.488;2024-01-06T01:13:51;98404.34;;;22.43;19.56
74936;BME280;63501;55.570;37.488;2024-01-06T01:16:19;98409.97;;;22.43;19.78
74936;BME280;63501;55.570;37.488;2024-01-06T01:18:46;98401.53;;;22.43;19.69
74936;BME280;63501;55.570;37.488;2024-01-06T01:21:13;98403.56;;;22.42;19.09
74936;BME280;63501;55.570;37.488;2024-01-06T01:23:40;98398.72;;;22.43;19.48
74936;BME280;63501;55.570;37.488;2024-01-06T01:26:07;98396.41;;;22.41;19.72
74936;BME280;63501;55.570;37.488;2024-01-06T01:28:34;98398.72;;;22.43;19.32
74936;BME280;63501;55.570;37.488;2024-01-06T01:31:01;98397.94;;;22.42;19.63
74936;BME280;63501;55.570;37.488;2024-01-06T01:33:29;98397.19;;;22.42;19.39
74936;BME280;63501;55.570;37.488;2024-01-06T01:35:56;98397.94;;;22.42;19.02
74936;BME280;63501;55.570;37.488;2024-01-06T01:38:23;98392.31;;;22.42;19.40
74936;BME280;63501;55.570;37.488;2024-01-06T01:40:50;98385.91;;;22.42;19.29
74936;BME280;63501;55.570;37.488;2024-01-06T01:43:17;98379.50;;;22.41;19.01
74936;BME280;63501;55.570;37.488;2024-01-06T01:45:44;98385.13;;;22.41;18.96
74936;BME280;63501;55.570;37.488;2024-01-06T01:48:12;98366.19;;;22.42;19.41
74936;BME280;63501;55.570;37.488;2024-01-06T01:50:40;98376.69;;;22.41;19.31
74936;BME280;63501;55.570;37.488;2024-01-06T01:53:07;98369.78;;;22.42;18.69
74936;BME280;63501;55.570;37.488;2024-01-06T01:55:33;98372.59;;;22.42;19.04
74936;BME280;63501;55.570;37.488;2024-01-06T01:58:00;98372.59;;;22.42;19.06
74936;BME280;63501;55.570;37.488;2024-01-06T02:00:27;98369.78;;;22.42;19.04
74936;BME280;63501;55.570;37.488;2024-01-06T02:02:54;98376.19;;;22.43;19.04
74936;BME280;63501;55.570;37.488;2024-01-06T02:05:21;98383.09;;;22.42;18.86
74936;BME280;63501;55.570;37.488;2024-01-06T02:07:50;98374.66;;;22.42;18.95
74936;BME280;63501;55.570;37.488;2024-01-06T02:10:17;98373.88;;;22.41;19.03
74936;BME280;63501;55.570;37.488;2024-01-06T02:12:44;98385.13;;;22.41;19.00
74936;BME280;63501;55.570;37.488;2024-01-06T02:15:11;98375.91;;;22.41;18.59
74936;BME280;63501;55.570;37.488;2024-01-06T02:17:37;98394.88;;;22.40;18.92
74936;BME280;63501;55.570;37.488;2024-01-06T02:20:05;98390.00;;;22.41;18.86
74936;BME280;63501;55.570;37.488;2024-01-06T02:22:34;98394.88;;;22.40;19.24
74936;BME280;63501;55.570;37.488;2024-01-06T02:25:01;98404.09;;;22.41;18.49
74936;BME280;63501;55.570;37.488;2024-01-06T02:27:28;98398.44;;;22.41;18.72
74936;BME280;63501;55.570;37.488;2024-01-06T02:29:57;98398.97;;;22.39;18.65
74936;BME280;63501;55.570;37.488;2024-01-06T02:32:23;98399.72;;;22.40;18.76
74936;BME280;63501;55.570;37.488;2024-01-06T02:34:50;98403.78;;;22.39;18.32
74936;BME280;63501;55.570;37.488;2024-01-06T02:37:17;98401.78;;;22.39;18.56
74936;BME280;63501;55.570;37.488;2024-01-06T02:39:46;98404.59;;;22.39;18.25
74936;BME280;63501;55.570;37.488;2024-01-06T02:42:12;98396.13;;;22.39;18.43
74936;BME280;63501;55.570;37.488;2024-01-06T02:44:39;98395.34;;;22.39;18.75
74936;BME280;63501;55.570;37.488;2024-01-06T02:47:06;98390.50;;;22.39;18.74
74936;BME280;63501;55.570;37.488;2024-01-06T02:49:33;98396.91;;;22.40;18.34
74936;BME280;63501;55.570;37.488;2024-01-06T02:52:00;98388.47;;;22.40;18.41
74936;BME280;63501;55.570;37.488;2024-01-06T02:54:27;98382.06;;;22.39;18.60
74936;BME280;63501;55.570;37.488;2024-01-06T02:56:55;98376.44;;;22.39;18.44
74936;BME280;63501;55.570;37.488;2024-01-06T02:59:22;98377.47;;;22.42;18.45
74936;BME280;63501;55.570;37.488;2024-01-06T03:01:49;98369.50;;;22.40;18.67
74936;BME280;63501;55.570;37.488;2024-01-06T03:04:15;98381.56;;;22.41;18.29
74936;BME280;63501;55.570;37.488;2024-01-06T03:06:42;98377.47;;;22.42;18.30
74936;BME280;63501;55.570;37.488;2024-01-06T03:09:11;98385.13;;;22.41;18.08
74936;BME280;63501;55.570;37.488;2024-01-06T03:11:38;98389.22;;;22.40;18.15
74936;BME280;63501;55.570;37.488;2024-01-06T03:14:06;98377.97;;;22.40;18.39
74936;BME280;63501;55.570;37.488;2024-01-06T03:16:33;98375.16;;;22.40;18.41
74936;BME280;63501;55.570;37.488;2024-01-06T03:19:00;98381.56;;;22.41;18.34
74936;BME280;63501;55.570;37.488;2024-01-06T03:21:27;98389.22;;;22.40;18.25
74936;BME280;63501;55.570;37.488;2024-01-06T03:23:54;98390.78;;;22.41;18.17
74936;BME280;63501;55.570;37.488;2024-01-06T03:26:21;98385.13;;;22.41;18.33
74936;BME280;63501;55.570;37.488;2024-01-06T03:28:49;98390.00;;;22.41;18.30
74936;BME280;63501;55.570;37.488;2024-01-06T03:31:17;98393.59;;;22.41;18.40
74936;BME280;63501;55.570;37.488;2024-01-06T03:33:46;98381.56;;;22.41;18.41
74936;BME280;63501;55.570;37.488;2024-01-06T03:36:13;98391.53;;;22.42;18.21
74936;BME280;63501;55.570;37.488;2024-01-06T03:38:41;98390.78;;;22.41;18.20
74936;BME280;63501;55.570;37.488;2024-01-06T03:41:08;98387.97;;;22.41;17.84
74936;BME280;63501;55.570;37.488;2024-01-06T03:43:34;98390.00;;;22.41;17.89
74936;BME280;63501;55.570;37.488;2024-01-06T03:46:01;98395.63;;;22.41;18.15
74936;BME280;63501;55.570;37.488;2024-01-06T03:48:30;98389.22;;;22.40;18.16
74936;BME280;63501;55.570;37.488;2024-01-06T03:50:57;98383.31;;;22.38;18.32
74936;BME280;63501;55.570;37.488;2024-01-06T03:53:24;98388.47;;;22.40;18.29
74936;BME280;63501;55.570;37.488;2024-01-06T03:55:51;98386.41;;;22.40;18.41
74936;BME280;63501;55.570;37.488;2024-01-06T03:58:17;98388.47;;;22.40;18.00
74936;BME280;63501;55.570;37.488;2024-01-06T04:00:44;98387.69;;;22.39;17.81
74936;BME280;63501;55.570;37.488;2024-01-06T04:03:11;98389.22;;;22.40;17.60
74936;BME280;63501;55.570;37.488;2024-01-06T04:05:39;98382.06;;;22.39;18.07
74936;BME280;63501;55.570;37.488;2024-01-06T04:08:07;98385.66;;;22.40;17.64
74936;BME280;63501;55.570;37.488;2024-01-06T04:10:34;98385.66;;;22.40;17.97
74936;BME280;63501;55.570;37.488;2024-01-06T04:13:00;98396.13;;;22.39;18.06
74936;BME280;63501;55.570;37.488;2024-01-06T04:15:27;98388.47;;;22.40;18.05
74936;BME280;63501;55.570;37.488;2024-01-06T04:17:54;98382.81;;;22.40;17.61
74936;BME280;63501;55.570;37.488;2024-01-06T04:20:21;98392.53;;;22.39;17.96
74936;BME280;63501;55.570;37.488;2024-01-06T04:22:49;98386.13;;;22.38;17.70
74936;BME280;63501;55.570;37.488;2024-01-06T04:25:16;98384.06;;;22.39;17.76
74936;BME280;63501;55.570;37.488;2024-01-06T04:27:43;98396.13;;;22.39;18.06
74936;BME280;63501;55.570;37.488;2024-01-06T04:30:12;98408.94;;;22.40;17.88
74936;BME280;63501;55.570;37.488;2024-01-06T04:32:38;98408.94;;;22.40;17.86
74936;BME280;63501;55.570;37.488;2024-01-06T04:35:06;98406.91;;;22.41;17.76
74936;BME280;63501;55.570;37.488;2024-01-06T04:37:32;98402.81;;;22.42;17.82
74936;BME280;63501;55.570;37.488;2024-01-06T04:40:01;98405.63;;;22.42;17.56
74936;BME280;63501;55.570;37.488;2024-01-06T04:42:29;98409.22;;;22.42;17.87
74936;BME280;63501;55.570;37.488;2024-01-06T04:44:56;98402.81;;;22.42;17.75
74936;BME280;63501;55.570;37.488;2024-01-06T04:47:23;98409.22;;;22.42;17.83
74936;BME280;63501;55.570;37.488;2024-01-06T04:49:50;98416.38;;;22.43;17.92
74936;BME280;63501;55.570;37.488;2024-01-06T04:52:17;98415.63;;;22.43;17.74
74936;BME280;63501;55.570;37.488;2024-01-06T04:54:43;98413.56;;;22.43;17.55
74936;BME280;63501;55.570;37.488;2024-01-06T04:57:12;98416.38;;;22.43;17.62
74936;BME280;63501;55.570;37.488;2024-01-06T04:59:39;98420.75;;;22.44;17.64
74936;BME280;63501;55.570;37.488;2024-01-06T05:02:06;98420.75;;;22.44;17.47
74936;BME280;63501;55.570;37.488;2024-01-06T05:04:33;98417.16;;;22.44;17.76
74936;BME280;63501;55.570;37.488;2024-01-06T05:07:00;98426.38;;;22.44;17.52
74936;BME280;63501;55.570;37.488;2024-01-06T05:09:27;98423.56;;;22.44;17.64
74936;BME280;63501;55.570;37.488;2024-01-06T05:11:54;98422.78;;;22.44;17.74
74936;BME280;63501;55.570;37.488;2024-01-06T05:14:22;98416.69;;;22.46;17.26
74936;BME280;63501;55.570;37.488;2024-01-06T05:16:49;98421.53;;;22.45;17.77
74936;BME280;63501;55.570;37.488;2024-01-06T05:19:16;98425.13;;;22.46;17.40
74936;BME280;63501;55.570;37.488;2024-01-06T05:21:45;98414.63;;;22.46;17.52
74936;BME280;63501;55.570;37.488;2024-01-06T05:24:12;98411.81;;;22.46;17.44
74936;BME280;63501;55.570;37.488;2024-01-06T05:26:39;98397.72;;;22.46;17.24
74936;BME280;63501;55.570;37.488;2024-01-06T05:29:07;98400.56;;;22.46;17.81
74936;BME280;63501;55.570;37.488;2024-01-06T05:31:35;98407.94;;;22.43;17.52
74936;BME280;63501;55.570;37.488;2024-01-06T05:34:02;98404.34;;;22.43;17.23
74936;BME280;63501;55.570;37.488;2024-01-06T05:36:29;98409.22;;;22.42;17.44
74936;BME280;63501;55.570;37.488;2024-01-06T05:38:56;98398.44;;;22.41;17.40
74936;BME280;63501;55.570;37.488;2024-01-06T05:41:24;98406.91;;;22.41;17.20
74936;BME280;63501;55.570;37.488;2024-01-06T05:43:51;98420.22;;;22.40;17.39
74936;BME280;63501;55.570;37.488;2024-01-06T05:46:21;98423.78;;;22.41;17.53
74936;BME280;63501;55.570;37.488;2024-01-06T05:48:49;98423.78;;;22.41;17.68
74936;BME280;63501;55.570;37.488;2024-01-06T05:51:17;98430.19;;;22.41;17.24
74936;BME280;63501;55.570;37.488;2024-01-06T05:53:43;98437.09;;;22.40;17.36
74936;BME280;63501;55.570;37.488;2024-01-06T05:56:10;98446.34;;;22.41;17.35
74936;BME280;63501;55.570;37.488;2024-01-06T05:58:37;98446.84;;;22.39;17.50
74936;BME280;63501;55.570;37.488;2024-01-06T06:01:04;98448.06;;;22.38;17.42
74936;BME280;63501;55.570;37.488;2024-01-06T06:03:32;98451.66;;;22.39;17.40
74936;BME280;63501;55.570;37.488;2024-01-06T06:06:00;98452.16;;;22.37;17.26
74936;BME280;63501;55.570;37.488;2024-01-06T06:08:28;98443.47;;;22.35;17.24
74936;BME280;63501;55.570;37.488;2024-01-06T06:10:54;98446.28;;;22.35;17.06
74936;BME280;63501;55.570;37.488;2024-01-06T06:13:27;98449.09;;;22.35;16.95
74936;BME280;63501;55.570;37.488;2024-01-06T06:15:54;98454.72;;;22.35;17.28
74936;BME280;63501;55.570;37.488;2024-01-06T06:18:21;98446.28;;;22.35;16.92
74936;BME280;63501;55.570;37.488;2024-01-06T06:20:48;98456.25;;;22.36;17.45
74936;BME280;63501;55.570;37.488;2024-01-06T06:23:16;98468.28;;;22.37;16.87
74936;BME280;63501;55.570;37.488;2024-01-06T06:25:43;98457.03;;;22.37;17.12
74936;BME280;63501;55.570;37.488;2024-01-06T06:28:10;98467.03;;;22.38;17.28
74936;BME280;63501;55.570;37.488;2024-01-06T06:30:37;98460.91;;;22.39;17.08
74936;BME280;63501;55.570;37.488;2024-01-06T06:33:04;98469.38;;;22.39;17.23
74936;BME280;63501;55.570;37.488;2024-01-06T06:35:31;98472.94;;;22.40;16.84
74936;BME280;63501;55.570;37.488;2024-01-06T06:37:58;98487.03;;;22.40;16.80
74936;BME280;63501;55.570;37.488;2024-01-06T06:40:27;98479.34;;;22.40;16.99
74936;BME280;63501;55.570;37.488;2024-01-06T06:42:54;98468.09;;;22.40;17.07
74936;BME280;63501;55.570;37.488;2024-01-06T06:45:21;98459.63;;;22.40;16.86
74936;BME280;63501;55.570;37.488;2024-01-06T06:47:49;98467.59;;;22.42;17.20
74936;BME280;63501;55.570;37.488;2024-01-06T06:50:16;98461.19;;;22.41;17.00
74936;BME280;63501;55.570;37.488;2024-01-06T06:52:43;98459.91;;;22.42;17.01
74936;BME280;63501;55.570;37.488;2024-01-06T06:55:10;98458.63;;;22.43;16.90
74936;BME280;63501;55.570;37.488;2024-01-06T06:57:38;98467.38;;;22.46;16.69
74936;BME280;63501;55.570;37.488;2024-01-06T07:00:06;98480.19;;;22.47;16.83
74936;BME280;63501;55.570;37.488;2024-01-06T07:02:33;98468.91;;;22.47;16.81
74936;BME280;63501;55.570;37.488;2024-01-06T07:05:00;98473.28;;;22.48;17.07
74936;BME280;63501;55.570;37.488;2024-01-06T07:07:28;98465.59;;;22.48;16.96
74936;BME280;63501;55.570;37.488;2024-01-06T07:09:55;98473.53;;;22.50;16.97
74936;BME280;63501;55.570;37.488;2024-01-06T07:12:22;98462.28;;;22.50;16.76
74936;BME280;63501;55.570;37.488;2024-01-06T07:14:50;98464.31;;;22.49;16.80
74936;BME280;63501;55.570;37.488;2024-01-06T07:17:17;98462.28;;;22.50;16.39
74936;BME280;63501;55.570;37.488;2024-01-06T07:19:44;98459.47;;;22.50;16.87
74936;BME280;63501;55.570;37.488;2024-01-06T07:22:11;98473.06;;;22.51;16.24
74936;BME280;63501;55.570;37.488;2024-01-06T07:24:37;98475.88;;;22.51;17.06
74936;BME280;63501;55.570;37.488;2024-01-06T07:27:04;98477.13;;;22.50;16.95
74936;BME280;63501;55.570;37.488;2024-01-06T07:29:31;98475.94;;;22.57;16.63
74936;BME280;63501;55.570;37.488;2024-01-06T07:32:00;98473.03;;;22.77;16.74
74936;BME280;63501;55.570;37.488;2024-01-06T07:34:26;98470.28;;;23.09;16.64
74936;BME280;63501;55.570;37.488;2024-01-06T07:36:53;98469.25;;;23.43;16.52
74936;BME280;63501;55.570;37.488;2024-01-06T07:39:21;98472.56;;;23.85;16.04
74936;BME280;63501;55.570;37.488;2024-01-06T07:41:49;98458.09;;;24.20;16.38
74936;BME280;63501;55.570;37.488;2024-01-06T07:44:16;98450.75;;;24.56;16.12
74936;BME280;63501;55.570;37.488;2024-01-06T07:46:48;98444.13;;;24.93;15.81
74936;BME280;63501;55.570;37.488;2024-01-06T07:49:16;98450.81;;;25.23;15.33
74936;BME280;63501;55.570;37.488;2024-01-06T07:51:43;98440.97;;;25.52;15.37
74936;BME280;63501;55.570;37.488;2024-01-06T07:54:10;98440.94;;;25.75;15.81
74936;BME280;63501;55.570;37.488;2024-01-06T07:56:37;98430.09;;;25.84;15.56
74936;BME280;63501;55.570;37.488;2024-01-06T07:59:04;98423.41;;;25.88;15.90
74936;BME280;63501;55.570;37.488;2024-01-06T08:01:31;98430.34;;;25.87;15.38
74936;BME280;63501;55.570;37.488;2024-01-06T08:03:58;98431.66;;;25.85;15.42
74936;BME280;63501;55.570;37.488;2024-01-06T08:06:26;98438.38;;;25.82;15.37
74936;BME280;63501;55.570;37.488;2024-01-06T08:08:53;98443.25;;;25.82;15.41
74936;BME280;63501;55.570;37.488;2024-01-06T08:11:21;98435.25;;;25.80;15.58
74936;BME280;63501;55.570;37.488;2024-01-06T08:13:50;98434.38;;;26.08;18.06
74936;BME280;63501;55.570;37.488;2024-01-06T08:16:20;98439.50;;;25.29;17.91
74936;BME280;63501;55.570;37.488;2024-01-06T08:18:52;98439.19;;;23.78;17.55
74936;BME280;63501;55.570;37.488;2024-01-06T08:21:19;98442.28;;;23.80;17.85
74936;BME280;63501;55.570;37.488;2024-01-06T08:23:48;98443.44;;;24.10;17.61
74936;BME280;63501;55.570;37.488;2024-01-06T08:26:15;98420.69;;;24.36;17.12
74936;BME280;63501;55.570;37.488;2024-01-06T08:28:42;98430.75;;;24.65;17.46
74936;BME280;63501;55.570;37.488;2024-01-06T08:31:10;98427.66;;;24.86;16.99
74936;BME280;63501;55.570;37.488;2024-01-06T08:33:37;98426.88;;;24.96;17.59
74936;BME280;63501;55.570;37.488;2024-01-06T08:36:05;98432.56;;;25.08;17.59
74936;BME280;63501;55.570;37.488;2024-01-06T08:38:32;98430.50;;;25.14;17.76
74936;BME280;63501;55.570;37.488;2024-01-06T08:41:02;98430.25;;;25.17;17.78
74936;BME280;63501;55.570;37.488;2024-01-06T08:43:29;98427.41;;;25.23;17.99
74936;BME280;63501;55.570;37.488;2024-01-06T08:45:56;98435.88;;;25.28;17.85
74936;BME280;63501;55.570;37.488;2024-01-06T08:48:24;98435.34;;;25.36;17.99
74936;BME280;63501;55.570;37.488;2024-01-06T08:50:51;98426.34;;;25.48;18.19
74936;BME280;63501;55.570;37.488;2024-01-06T08:53:18;98432.97;;;25.62;18.38
74936;BME280;63501;55.570;37.488;2024-01-06T08:55:45;98430.91;;;25.74;18.20
74936;BME280;63501;55.570;37.488;2024-01-06T08:58:14;98430.09;;;25.84;18.43
74936;BME280;63501;55.570;37.488;2024-01-06T09:00:41;98419.81;;;25.87;19.36
74936;BME280;63501;55.570;37.488;2024-01-06T09:03:08;98420.06;;;25.89;19.28
74936;BME280;63501;55.570;37.488;2024-01-06T09:05:38;91449.16;;;25.91;20.37
74936;BME280;63501;55.570;37.488;2024-01-06T09:08:06;98415.69;;;25.88;19.29
74936;BME280;63501;55.570;37.488;2024-01-06T09:10:33;98415.16;;;25.90;19.82
74936;BME280;63501;55.570;37.488;2024-01-06T09:13:01;98420.28;;;25.91;19.62
74936;BME280;63501;55.570;37.488;2024-01-06T09:15:30;98405.09;;;25.94;20.52
74936;BME280;63501;55.570;37.488;2024-01-06T09:17:58;98413.56;;;26.00;20.12
74936;BME280;63501;55.570;37.488;2024-01-06T09:20:25;98400.41;;;26.02;20.56
74936;BME280;63501;55.570;37.488;2024-01-06T09:22:53;98392.97;;;25.99;19.95
74936;BME280;63501;55.570;37.488;2024-01-06T09:25:20;98392.25;;;25.93;20.54
74936;BME280;63501;55.570;37.488;2024-01-06T09:27:50;98387.09;;;25.86;20.58
74936;BME280;63501;55.570;37.488;2024-01-06T09:30:18;98388.16;;;25.83;20.63
74936;BME280;63501;55.570;37.488;2024-01-06T09:32:47;98390.72;;;25.81;21.19
74936;BME280;63501;55.570;37.488;2024-01-06T09:35:15;98392.28;;;25.82;20.41
74936;BME280;63501;55.570;37.488;2024-01-06T09:37:42;98391.22;;;25.85;20.78
74936;BME280;63501;55.570;37.488;2024-01-06T09:40:12;98394.59;;;25.83;20.58
74936;BME280;63501;55.570;37.488;2024-01-06T09:42:40;98387.88;;;25.87;20.95
74936;BME280;63501;55.570;37.488;2024-01-06T09:45:07;98380.94;;;25.88;20.54
74936;BME280;63501;55.570;37.488;2024-01-06T09:47:35;98389.13;;;25.91;20.98
74936;BME280;63501;55.570;37.488;2024-01-06T09:50:06;98388.34;;;25.96;20.52
74936;BME280;63501;55.570;37.488;2024-01-06T09:52:39;98369.59;;;25.93;20.54
74936;BME280;63501;55.570;37.488;2024-01-06T09:55:10;98387.75;;;26.09;20.79
74936;BME280;63501;55.570;37.488;2024-01-06T09:57:38;98394.69;;;26.14;21.23
74936;BME280;63501;55.570;37.488;2024-01-06T10:00:07;98375.91;;;26.10;20.67
74936;BME280;63501;55.570;37.488;2024-01-06T10:02:35;98380.50;;;26.19;21.09
74936;BME280;63501;55.570;37.488;2024-01-06T10:05:02;98375.81;;;26.27;21.03
74936;BME280;63501;55.570;37.488;2024-01-06T10:07:31;98380.66;;;26.38;20.93
74936;BME280;63501;55.570;37.488;2024-01-06T10:09:58;98369.75;;;26.48;20.28
74936;BME280;63501;55.570;37.488;2024-01-06T10:12:26;98365.84;;;26.56;20.49
74936;BME280;63501;55.570;37.488;2024-01-06T10:14:53;98368.09;;;26.63;20.31
74936;BME280;63501;55.570;37.488;2024-01-06T10:17:21;98369.59;;;26.70;20.24
74936;BME280;63501;55.570;37.488;2024-01-06T10:19:49;98365.16;;;26.75;20.60
74936;BME280;63501;55.570;37.488;2024-01-06T10:22:18;98362.28;;;26.80;20.20
74936;BME280;63501;55.570;37.488;2024-01-06T10:24:47;98359.16;;;26.84;20.37
74936;BME280;63501;55.570;37.488;2024-01-06T10:27:14;98359.94;;;26.84;20.41
74936;BME280;63501;55.570;37.488;2024-01-06T10:29:41;98345.50;;;26.82;20.42
74936;BME280;63501;55.570;37.488;2024-01-06T10:32:09;98350.59;;;26.89;20.21
74936;BME280;63501;55.570;37.488;2024-01-06T10:34:37;98338.00;;;26.85;20.39
74936;BME280;63501;55.570;37.488;2024-01-06T10:37:05;98347.47;;;26.93;20.19
74936;BME280;63501;55.570;37.488;2024-01-06T10:39:33;98330.44;;;26.93;20.17
74936;BME280;63501;55.570;37.488;2024-01-06T10:42:02;98333.28;;;26.93;20.32
74936;BME280;63501;55.570;37.488;2024-01-06T10:44:31;98342.03;;;26.95;20.20
74936;BME280;63501;55.570;37.488;2024-01-06T10:46:59;98339.44;;;26.97;20.34
74936;BME280;63501;55.570;37.488;2024-01-06T10:49:28;98330.94;;;26.97;20.27
74936;BME280;63501;55.570;37.488;2024-01-06T10:51:58;98329.63;;;26.98;20.43
74936;BME280;63501;55.570;37.488;2024-01-06T10:54:27;98328.31;;;26.99;20.21
74936;BME280;63501;55.570;37.488;2024-01-06T10:56:57;98331.94;;;27.00;20.13
74936;BME280;63501;55.570;37.488;2024-01-06T10:59:29;98330.66;;;27.01;20.32
74936;BME280;63501;55.570;37.488;2024-01-06T11:01:58;98321.13;;;26.98;20.34
74936;BME280;63501;55.570;37.488;2024-01-06T11:04:26;98320.59;;;27.00;19.60
74936;BME280;63501;55.570;37.488;2024-01-06T11:06:53;98314.63;;;27.03;20.14
74936;BME280;63501;55.570;37.488;2024-01-06T11:09:24;98315.69;;;27.00;19.91
74936;BME280;63501;55.570;37.488;2024-01-06T11:11:55;98332.41;;;27.04;19.67
74936;BME280;63501;55.570;37.488;2024-01-06T11:14:24;98328.25;;;27.05;19.92
74936;BME280;63501;55.570;37.488;2024-01-06T11:16:55;98332.19;;;27.02;19.94
74936;BME280;63501;55.570;37.488;2024-01-06T11:19:44;98326.84;;;26.93;20.19
74936;BME280;63501;55.570;37.488;2024-01-06T11:22:25;98336.47;;;26.84;20.30
74936;BME280;63501;55.570;37.488;2024-01-06T11:24:55;98326.78;;;26.74;20.51
74936;BME280;63501;55.570;37.488;2024-01-06T11:27:24;98328.91;;;26.68;20.66
74936;BME280;63501;55.570;37.488;2024-01-06T11:29:54;98342.03;;;26.65;20.64
74936;BME280;63501;55.570;37.488;2024-01-06T11:32:30;98338.50;;;26.59;20.41
74936;BME280;63501;55.570;37.488;2024-01-06T11:35:10;98343.22;;;26.51;20.68
74936;BME280;63501;55.570;37.488;2024-01-06T11:37:51;98347.38;;;26.44;20.45
74936;BME280;63501;55.570;37.488;2024-01-06T11:40:33;98348.44;;;26.35;20.80
74936;BME280;63501;55.570;37.488;2024-01-06T11:43:03;98349.25;;;26.30;21.04
74936;BME280;63501;55.570;37.488;2024-01-06T11:45:32;98348.00;;;26.26;20.71
74936;BME280;63501;55.570;37.488;2024-01-06T11:48:02;98347.56;;;26.16;20.62
74936;BME280;63501;55.570;37.488;2024-01-06T11:50:31;98358.88;;;26.16;20.83
74936;BME280;63501;55.570;37.488;2024-01-06T11:52:59;98353.25;;;26.10;20.78
74936;BME280;63501;55.570;37.488;2024-01-06T11:55:27;98358.19;;;26.04;21.03
74936;BME280;63501;55.570;37.488;2024-01-06T11:57:55;98350.50;;;25.99;20.80
74936;BME280;63501;55.570;37.488;2024-01-06T12:00:23;98356.97;;;25.94;20.63
74936;BME280;63501;55.570;37.488;2024-01-06T12:02:56;98348.22;;;25.87;20.84
74936;BME280;63501;55.570;37.488;2024-01-06T12:05:27;98353.91;;;25.81;20.75
74936;BME280;63501;55.570;37.488;2024-01-06T12:07:55;98351.41;;;25.66;21.07
74936;BME280;63501;55.570;37.488;2024-01-06T12:10:24;98358.59;;;25.67;20.71
74936;BME280;63501;55.570;37.488;2024-01-06T12:12:59;98363.50;;;25.67;20.91
74936;BME280;63501;55.570;37.488;2024-01-06T12:15:28;98354.22;;;25.66;20.63
74936;BME280;63501;55.570;37.488;2024-01-06T12:17:56;98361.44;;;25.67;20.85
74936;BME280;63501;55.570;37.488;2024-01-06T12:20:23;98369.91;;;25.67;20.98
74936;BME280;63501;55.570;37.488;2024-01-06T12:22:53;98363.25;;;25.65;21.35
74936;BME280;63501;55.570;37.488;2024-01-06T12:25:21;98371.25;;;25.61;21.35
74936;BME280;63501;55.570;37.488;2024-01-06T12:27:49;98366.09;;;25.59;21.32
74936;BME280;63501;55.570;37.488;2024-01-06T12:30:18;98370.50;;;25.54;21.16
74936;BME280;63501;55.570;37.488;2024-01-06T12:32:46;98374.34;;;25.51;21.03
74936;BME280;63501;55.570;37.488;2024-01-06T12:35:16;98367.69;;;25.43;21.18
74936;BME280;63501;55.570;37.488;2024-01-06T12:37:46;98379.50;;;25.47;21.53
74936;BME280;63501;55.570;37.488;2024-01-06T12:40:16;98384.38;;;25.52;21.60
74936;BME280;63501;55.570;37.488;2024-01-06T12:42:45;98373.81;;;25.58;21.78
74936;BME280;63501;55.570;37.488;2024-01-06T12:45:13;98382.00;;;25.79;21.76
74936;BME280;63501;55.570;37.488;2024-01-06T12:47:41;98374.72;;;25.95;21.03
74936;BME280;63501;55.570;37.488;2024-01-06T12:50:09;98377.22;;;26.09;21.30
74936;BME280;63501;55.570;37.488;2024-01-06T12:52:36;98386.41;;;26.21;21.54